createdAt,value
2022-12-04T00:00:20.065Z,-1.42
2022-12-04T00:02:51.051Z,-1.44
2022-12-04T00:05:23.097Z,-1.44
2022-12-04T00:07:59.137Z,-1.51
2022-12-04T00:10:29.801Z,-1.56
2022-12-04T00:12:59.821Z,-1.58
2022-12-04T00:15:29.355Z,-1.48
2022-12-04T00:18:00.050Z,-1.41
2022-12-04T00:20:32.406Z,-1.42
2022-12-04T00:23:04.143Z,-1.48
2022-12-04T00:25:37.916Z,-1.47
2022-12-04T00:28:10.515Z,-1.40
2022-12-04T00:30:47.548Z,-1.44
2022-12-04T00:33:17.901Z,-1.43
2022-12-04T00:35:46.835Z,-1.46
2022-12-04T00:38:15.933Z,-1.50
2022-12-04T00:40:55.557Z,-1.46
2022-12-04T00:43:27.807Z,-1.51
2022-12-04T00:45:57.720Z,-1.49
2022-12-04T00:48:28.942Z,-1.41
2022-12-04T00:51:03.648Z,-1.53
2022-12-04T00:53:33.071Z,-1.47
2022-12-04T00:56:06.746Z,-1.45
2022-12-04T00:58:38.695Z,-1.48
2022-12-04T01:01:11.197Z,-1.51
2022-12-04T01:03:43.451Z,-1.47
2022-12-04T01:06:22.631Z,-1.42
2022-12-04T01:08:52.804Z,-1.52
2022-12-04T01:11:30.358Z,-1.48
2022-12-04T01:14:00.591Z,-1.51
2022-12-04T01:16:33.817Z,-1.49
2022-12-04T01:19:11.320Z,-1.54
2022-12-04T01:21:44.120Z,-1.53
2022-12-04T01:24:12.688Z,-1.50
2022-12-04T01:26:42.120Z,-1.45
2022-12-04T01:29:11.153Z,-1.44
2022-12-04T01:31:40.428Z,-1.39
2022-12-04T01:34:11.046Z,-1.34
2022-12-04T01:36:40.456Z,-1.41
2022-12-04T01:39:09.611Z,-1.43
2022-12-04T01:41:39.868Z,-1.28
2022-12-04T01:44:13.990Z,-1.36
2022-12-04T01:46:45.955Z,-1.37
2022-12-04T01:49:21.013Z,-1.41
2022-12-04T01:51:56.730Z,-1.29
2022-12-04T01:54:30.351Z,-1.21
2022-12-04T01:57:05.585Z,-1.28
2022-12-04T01:59:44.454Z,-1.26
2022-12-04T02:02:17.791Z,-1.31
2022-12-04T02:04:48.660Z,-1.33
2022-12-04T02:07:17.884Z,-1.33
2022-12-04T02:09:53.901Z,-1.33
2022-12-04T02:12:38.042Z,-1.32
2022-12-04T02:15:18.828Z,-1.32
2022-12-04T02:18:01.273Z,-1.26
2022-12-04T02:20:40.477Z,-1.26
2022-12-04T02:23:47.517Z,-1.32
2022-12-04T02:26:41.448Z,-1.35
2022-12-04T02:29:25.237Z,-1.32
2022-12-04T02:32:01.023Z,-1.28
2022-12-04T02:34:38.088Z,-1.30
2022-12-04T02:37:15.913Z,-1.30
2022-12-04T02:39:56.279Z,-1.24
2022-12-04T02:42:37.342Z,-1.24
2022-12-04T02:45:13.876Z,-1.27
2022-12-04T02:47:46.220Z,-1.22
2022-12-04T02:50:19.781Z,-1.25
2022-12-04T02:52:53.899Z,-1.23
2022-12-04T02:55:31.436Z,-1.20
2022-12-04T02:58:07.468Z,-1.24
2022-12-04T03:00:43.473Z,-1.25
2022-12-04T03:03:21.303Z,-1.19
2022-12-04T03:05:59.832Z,-1.20
2022-12-04T03:08:36.417Z,-1.11
2022-12-04T03:11:06.267Z,-1.20
2022-12-04T03:13:42.885Z,-1.17
2022-12-04T03:16:24.610Z,-1.21
2022-12-04T03:18:59.482Z,-1.20
2022-12-04T03:21:35.235Z,-1.15
2022-12-04T03:24:14.562Z,-1.10
2022-12-04T03:26:49.619Z,-1.15
2022-12-04T03:29:24.937Z,-1.21
2022-12-04T03:32:05.965Z,-1.13
2022-12-04T03:34:41.103Z,-1.11
2022-12-04T03:37:17.314Z,-1.10
2022-12-04T03:39:58.862Z,-1.16
2022-12-04T03:42:36.289Z,-1.15
2022-12-04T03:45:16.702Z,-1.14
2022-12-04T03:47:56.561Z,-1.10
2022-12-04T03:50:37.292Z,-1.12
2022-12-04T03:53:18.470Z,-1.16
2022-12-04T03:55:53.754Z,-1.11
2022-12-04T03:58:31.537Z,-1.13
2022-12-04T04:01:05.414Z,-1.09
2022-12-04T04:03:43.208Z,-1.13
2022-12-04T04:06:19.548Z,-1.14
2022-12-04T04:08:57.146Z,-1.13
2022-12-04T04:11:33.454Z,-1.02
2022-12-04T04:14:27.010Z,-1.12
2022-12-04T04:17:19.046Z,-1.07
2022-12-04T04:20:18.958Z,-1.15
2022-12-04T04:23:11.429Z,-1.10
2022-12-04T04:25:45.014Z,-1.14
2022-12-04T04:28:34.733Z,-1.17
2022-12-04T04:31:19.338Z,-1.22
2022-12-04T04:33:59.696Z,-1.20
2022-12-04T04:36:44.963Z,-1.18
2022-12-04T04:39:25.534Z,-1.20
2022-12-04T04:42:05.011Z,-1.18
2022-12-04T04:44:46.478Z,-1.17
2022-12-04T04:47:23.164Z,-1.16
2022-12-04T04:49:57.781Z,-1.18
2022-12-04T04:52:29.295Z,-1.10
2022-12-04T04:55:01.680Z,-1.12
2022-12-04T04:57:34.215Z,-1.14
2022-12-04T05:00:05.506Z,-1.09
2022-12-04T05:02:39.336Z,-1.08
2022-12-04T05:05:09.950Z,-1.11
2022-12-04T05:07:47.305Z,-1.12
2022-12-04T05:10:16.509Z,-1.14
2022-12-04T05:12:45.461Z,-1.14
2022-12-04T05:15:14.581Z,-1.00
2022-12-04T05:17:43.993Z,-1.00
2022-12-04T05:20:19.880Z,-1.07
2022-12-04T05:22:53.991Z,-1.09
2022-12-04T05:25:23.148Z,-1.03
2022-12-04T05:27:52.240Z,-1.10
2022-12-04T05:30:21.325Z,-1.11
2022-12-04T05:32:54.177Z,-1.11
2022-12-04T05:35:23.108Z,-1.20
2022-12-04T05:37:54.220Z,-1.31
2022-12-04T05:40:23.514Z,-1.38
2022-12-04T05:42:55.987Z,-1.45
2022-12-04T05:45:25.665Z,-1.53
2022-12-04T05:47:54.524Z,-1.54
2022-12-04T05:50:23.618Z,-1.69
2022-12-04T05:52:53.987Z,-1.88
2022-12-04T05:55:23.167Z,-2.05
2022-12-04T05:57:52.388Z,-2.17
2022-12-04T06:00:27.537Z,-2.20
2022-12-04T06:02:56.985Z,-2.25
2022-12-04T06:05:29.290Z,-2.38
2022-12-04T06:08:00.207Z,-2.55
2022-12-04T06:10:30.804Z,-2.63
2022-12-04T06:12:59.742Z,-2.64
2022-12-04T06:15:28.787Z,-2.70
2022-12-04T06:17:58.207Z,-2.77
2022-12-04T06:20:27.529Z,-2.91
2022-12-04T06:22:56.831Z,-3.02
2022-12-04T06:25:30.992Z,-3.12
2022-12-04T06:28:00.385Z,-3.08
2022-12-04T06:30:32.230Z,-3.04
2022-12-04T06:33:01.513Z,-3.02
2022-12-04T06:35:30.300Z,-3.00
2022-12-04T06:37:59.308Z,-3.07
2022-12-04T06:40:29.729Z,-3.06
2022-12-04T06:42:58.953Z,-2.98
2022-12-04T06:45:31.661Z,-2.96
2022-12-04T06:48:03.133Z,-2.87
2022-12-04T06:50:32.203Z,-2.77
2022-12-04T06:53:06.616Z,-2.68
2022-12-04T06:55:39.713Z,-2.65
2022-12-04T06:58:09.268Z,-2.63
2022-12-04T07:00:38.304Z,-2.69
2022-12-04T07:03:07.374Z,-2.72
2022-12-04T07:05:39.054Z,-2.78
2022-12-04T07:08:08.475Z,-2.84
2022-12-04T07:10:44.124Z,-2.91
2022-12-04T07:13:16.997Z,-2.97
2022-12-04T07:15:46.666Z,-2.94
2022-12-04T07:18:15.519Z,-2.81
2022-12-04T07:20:47.020Z,-2.73
2022-12-04T07:23:15.804Z,-2.61
2022-12-04T07:25:47.069Z,-2.52
2022-12-04T07:28:16.716Z,-2.41
2022-12-04T07:30:46.022Z,-2.30
2022-12-04T07:33:16.182Z,-2.24
2022-12-04T07:35:45.234Z,-2.16
2022-12-04T07:38:14.945Z,-2.06
2022-12-04T07:40:46.546Z,-1.95
2022-12-04T07:43:18.467Z,-1.86
2022-12-04T07:45:47.316Z,-1.80
2022-12-04T07:48:16.726Z,-1.73
2022-12-04T07:50:46.131Z,-1.67
2022-12-04T07:53:15.813Z,-1.60
2022-12-04T07:55:46.359Z,-1.48
2022-12-04T07:58:20.219Z,-1.32
2022-12-04T08:00:49.525Z,-1.18
2022-12-04T08:03:19.013Z,-1.10
2022-12-04T08:05:48.209Z,-0.98
2022-12-04T08:08:17.809Z,-0.88
2022-12-04T08:10:49.191Z,-0.78
2022-12-04T08:13:21.879Z,-0.68
2022-12-04T08:15:54.277Z,-0.59
2022-12-04T08:18:32.705Z,-0.51
2022-12-04T08:21:07.140Z,-0.42
2022-12-04T08:23:37.063Z,-0.35
2022-12-04T08:26:13.181Z,-0.27
2022-12-04T08:28:46.214Z,-0.18
2022-12-04T08:31:21.010Z,-0.11
2022-12-04T08:33:53.310Z,-0.01
2022-12-04T08:36:24.026Z,0.03
2022-12-04T08:38:53.545Z,0.13
2022-12-04T08:41:27.004Z,0.28
2022-12-04T08:43:58.097Z,0.29
2022-12-04T08:46:31.571Z,0.37
2022-12-04T08:49:02.684Z,0.45
2022-12-04T08:51:36.689Z,0.46
2022-12-04T08:54:17.010Z,0.62
2022-12-04T08:56:52.972Z,0.64
2022-12-04T08:59:26.651Z,0.73
2022-12-04T09:02:09.478Z,0.69
2022-12-04T09:04:51.417Z,0.84
2022-12-04T09:07:25.623Z,0.96
2022-12-04T09:09:56.530Z,1.06
2022-12-04T09:12:29.625Z,1.13
2022-12-04T09:15:03.550Z,1.14
2022-12-04T09:17:33.901Z,1.28
2022-12-04T09:20:38.982Z,1.39
2022-12-04T09:23:09.875Z,1.41
2022-12-04T09:26:14.145Z,1.45
2022-12-04T09:28:37.022Z,1.43
2022-12-04T09:31:09.761Z,1.45
2022-12-04T09:33:46.928Z,1.49
2022-12-04T09:36:29.696Z,1.52
2022-12-04T09:39:09.026Z,1.58
2022-12-04T09:42:24.871Z,1.60
2022-12-04T09:45:10.019Z,1.48
2022-12-04T09:47:46.688Z,1.61
2022-12-04T09:50:26.732Z,1.68
2022-12-04T09:53:21.703Z,1.78
2022-12-04T09:56:01.411Z,1.76
2022-12-04T09:58:51.792Z,1.88
2022-12-04T10:01:33.342Z,1.91
2022-12-04T10:04:06.519Z,1.96
2022-12-04T10:06:48.212Z,1.92
2022-12-04T10:09:29.727Z,1.92
2022-12-04T10:12:18.952Z,1.88
2022-12-04T10:15:07.104Z,1.89
2022-12-04T10:18:34.710Z,1.95
2022-12-04T10:21:35.566Z,2.06
2022-12-04T10:24:25.314Z,1.96
2022-12-04T10:27:22.753Z,2.10
2022-12-04T10:30:02.205Z,2.19
2022-12-04T10:32:35.685Z,2.32
2022-12-04T10:35:24.638Z,2.32
2022-12-04T10:38:01.401Z,2.34
2022-12-04T10:40:43.500Z,2.30
2022-12-04T10:43:29.574Z,2.37
2022-12-04T10:46:00.571Z,2.40
2022-12-04T10:48:44.480Z,2.35
2022-12-04T10:51:28.142Z,2.47
2022-12-04T10:54:04.633Z,2.51
2022-12-04T10:56:34.776Z,2.50
2022-12-04T10:59:09.228Z,2.65
2022-12-04T11:01:43.590Z,2.61
2022-12-04T11:04:25.613Z,2.56
2022-12-04T11:07:06.366Z,2.66
2022-12-04T11:09:41.357Z,2.63
2022-12-04T11:12:24.969Z,2.71
2022-12-04T11:15:15.346Z,2.76
2022-12-04T11:17:46.376Z,2.85
2022-12-04T11:20:23.223Z,2.96
2022-12-04T11:23:09.931Z,2.89
2022-12-04T11:25:50.836Z,2.95
2022-12-04T11:28:41.299Z,3.02
2022-12-04T11:31:55.365Z,3.05
2022-12-04T11:34:32.941Z,3.18
2022-12-04T11:37:05.555Z,3.09
2022-12-04T11:39:42.256Z,3.17
2022-12-04T11:42:25.188Z,3.18
2022-12-04T11:44:58.089Z,3.33
2022-12-04T11:47:31.822Z,3.44
2022-12-04T11:50:21.340Z,3.40
2022-12-04T11:53:17.493Z,3.38
2022-12-04T11:56:26.674Z,3.38
2022-12-04T11:59:40.348Z,3.39
2022-12-04T12:02:36.048Z,3.41
2022-12-04T12:05:56.003Z,3.48
2022-12-04T12:08:59.271Z,3.38
2022-12-04T12:11:42.709Z,3.43
2022-12-04T12:14:21.737Z,3.41
2022-12-04T12:17:04.948Z,3.42
2022-12-04T12:20:16.185Z,3.42
2022-12-04T12:23:19.170Z,3.43
2022-12-04T12:25:59.789Z,3.45
2022-12-04T12:29:10.427Z,3.46
2022-12-04T12:32:11.972Z,3.46
2022-12-04T12:34:45.169Z,3.53
2022-12-04T12:37:37.327Z,3.54
2022-12-04T12:40:16.814Z,3.49
2022-12-04T12:42:58.444Z,3.51
2022-12-04T12:45:40.523Z,3.53
2022-12-04T12:48:28.755Z,3.52
2022-12-04T12:51:29.658Z,3.59
2022-12-04T12:54:14.291Z,3.53
2022-12-04T12:56:51.609Z,3.56
2022-12-04T12:59:26.952Z,3.63
2022-12-04T13:02:09.122Z,3.65
2022-12-04T13:04:49.611Z,3.70
2022-12-04T13:07:35.498Z,3.78
2022-12-04T13:10:17.028Z,3.69
2022-12-04T13:12:57.967Z,3.76
2022-12-04T13:15:51.477Z,3.76
2022-12-04T13:18:43.304Z,3.63
2022-12-04T13:21:58.836Z,3.65
2022-12-04T13:25:21.460Z,3.64
2022-12-04T13:28:11.012Z,3.69
2022-12-04T13:30:50.351Z,3.66
2022-12-04T13:34:08.578Z,3.60
2022-12-04T13:37:21.655Z,3.60
2022-12-04T13:40:37.366Z,3.67
2022-12-04T13:43:23.130Z,3.74
2022-12-04T13:46:05.966Z,3.70
2022-12-04T13:48:44.161Z,3.66
2022-12-04T13:51:40.148Z,3.74
2022-12-04T13:54:32.543Z,3.76
2022-12-04T13:57:25.670Z,3.76
2022-12-04T14:00:07.663Z,3.74
2022-12-04T14:02:42.237Z,3.71
2022-12-04T14:05:29.939Z,3.76
2022-12-04T14:08:20.323Z,3.76
2022-12-04T14:11:06.429Z,3.72
2022-12-04T14:13:52.447Z,3.64
2022-12-04T14:16:26.469Z,3.77
2022-12-04T14:19:00.964Z,3.73
2022-12-04T14:21:46.615Z,3.73
2022-12-04T14:24:36.343Z,3.69
2022-12-04T14:27:35.351Z,3.69
2022-12-04T14:30:11.185Z,3.70
2022-12-04T14:32:47.195Z,3.68
2022-12-04T14:35:24.018Z,3.67
2022-12-04T14:38:00.717Z,3.59
2022-12-04T14:40:38.840Z,3.60
2022-12-04T14:43:15.060Z,3.56
2022-12-04T14:45:52.820Z,3.59
2022-12-04T14:48:42.299Z,3.57
2022-12-04T14:51:26.369Z,3.61
2022-12-04T14:54:16.687Z,3.57
2022-12-04T14:57:04.186Z,3.56
2022-12-04T14:59:50.911Z,3.50
2022-12-04T15:02:35.143Z,3.47
2022-12-04T15:05:10.307Z,3.42
2022-12-04T15:07:49.269Z,3.48
2022-12-04T15:10:43.564Z,3.48
2022-12-04T15:13:17.289Z,3.49
2022-12-04T15:15:57.057Z,3.47
2022-12-04T15:18:26.224Z,3.47
2022-12-04T15:21:00.830Z,3.44
2022-12-04T15:23:36.930Z,3.47
2022-12-04T15:26:13.237Z,3.43
2022-12-04T15:28:48.294Z,3.46
2022-12-04T15:31:23.460Z,3.39
2022-12-04T15:33:58.538Z,3.39
2022-12-04T15:36:48.236Z,3.39
2022-12-04T15:39:27.247Z,3.38
2022-12-04T15:42:08.460Z,3.39
2022-12-04T15:44:38.691Z,3.38
2022-12-04T15:47:25.492Z,3.33
2022-12-04T15:49:55.411Z,3.39
2022-12-04T15:52:27.146Z,3.35
2022-12-04T15:55:05.651Z,3.37
2022-12-04T15:57:51.683Z,3.38
2022-12-04T16:00:33.359Z,3.39
2022-12-04T16:03:23.301Z,3.32
2022-12-04T16:06:22.337Z,3.34
2022-12-04T16:08:55.037Z,3.35
2022-12-04T16:11:35.862Z,3.39
2022-12-04T16:14:23.637Z,3.32
2022-12-04T16:17:05.525Z,3.28
2022-12-04T16:19:47.112Z,3.25
2022-12-04T16:22:21.380Z,3.27
2022-12-04T16:25:06.650Z,3.20
2022-12-04T16:27:43.142Z,3.19
2022-12-04T16:30:19.564Z,3.26
2022-12-04T16:32:48.908Z,3.25
2022-12-04T16:35:22.016Z,3.22
2022-12-04T16:37:53.387Z,3.22
2022-12-04T16:40:22.951Z,3.27
2022-12-04T16:42:55.683Z,3.21
2022-12-04T16:45:33.620Z,3.19
2022-12-04T16:48:02.772Z,3.18
2022-12-04T16:50:31.865Z,3.08
2022-12-04T16:53:00.871Z,3.08
2022-12-04T16:55:38.276Z,3.11
2022-12-04T16:58:12.514Z,3.05
2022-12-04T17:00:49.081Z,3.12
2022-12-04T17:03:26.539Z,3.15
2022-12-04T17:05:56.373Z,3.16
2022-12-04T17:08:40.743Z,3.14
2022-12-04T17:11:16.963Z,3.14
2022-12-04T17:13:46.439Z,3.22
2022-12-04T17:16:19.737Z,3.22
2022-12-04T17:18:58.080Z,3.18
2022-12-04T17:21:30.556Z,3.21
2022-12-04T17:24:05.431Z,3.21
2022-12-04T17:26:34.686Z,3.27
2022-12-04T17:29:04.079Z,3.28
2022-12-04T17:31:36.678Z,3.25
2022-12-04T17:34:07.202Z,3.21
2022-12-04T17:36:36.290Z,3.29
2022-12-04T17:39:07.599Z,3.24
2022-12-04T17:41:57.085Z,3.31
2022-12-04T17:44:28.982Z,3.36
2022-12-04T17:46:59.851Z,3.35
2022-12-04T17:49:28.913Z,3.30
2022-12-04T17:51:58.388Z,3.32
2022-12-04T17:54:31.572Z,3.24
2022-12-04T17:57:11.627Z,3.27
2022-12-04T17:59:43.859Z,3.25
2022-12-04T18:02:20.548Z,3.29
2022-12-04T18:04:55.926Z,3.36
2022-12-04T18:07:25.094Z,3.28
2022-12-04T18:09:56.790Z,3.24
2022-12-04T18:12:30.109Z,3.19
2022-12-04T18:14:59.381Z,3.25
2022-12-04T18:17:29.716Z,3.22
2022-12-04T18:20:04.226Z,3.29
2022-12-04T18:22:34.104Z,3.22
2022-12-04T18:25:03.367Z,3.23
2022-12-04T18:27:36.708Z,3.31
2022-12-04T18:30:10.939Z,3.28
2022-12-04T18:32:41.765Z,3.30
2022-12-04T18:35:11.860Z,3.30
2022-12-04T18:37:40.785Z,3.31
2022-12-04T18:40:30.032Z,3.25
2022-12-04T18:42:59.101Z,3.26
2022-12-04T18:45:28.270Z,3.28
2022-12-04T18:47:59.085Z,3.25
2022-12-04T18:50:30.334Z,3.19
2022-12-04T18:53:01.268Z,3.23
2022-12-04T18:55:36.609Z,3.24
2022-12-04T18:58:06.280Z,3.22
2022-12-04T19:00:40.343Z,3.18
2022-12-04T19:03:14.434Z,3.22
2022-12-04T19:05:50.392Z,3.22
2022-12-04T19:08:19.723Z,3.23
2022-12-04T19:10:49.110Z,3.24
2022-12-04T19:13:18.736Z,3.25
2022-12-04T19:15:47.823Z,3.32
2022-12-04T19:18:19.028Z,3.29
2022-12-04T19:20:48.671Z,3.27
2022-12-04T19:23:17.714Z,3.28
2022-12-04T19:25:55.677Z,3.28
2022-12-04T19:28:24.959Z,3.27
2022-12-04T19:30:54.872Z,3.24
2022-12-04T19:33:34.844Z,3.25
2022-12-04T19:36:07.600Z,3.33
2022-12-04T19:38:37.319Z,3.31
2022-12-04T19:41:10.322Z,3.26
2022-12-04T19:43:48.730Z,3.28
2022-12-04T19:46:21.466Z,3.28
2022-12-04T19:49:00.642Z,3.28
2022-12-04T19:51:32.308Z,3.31
2022-12-04T19:54:04.542Z,3.38
2022-12-04T19:56:38.603Z,3.33
2022-12-04T19:59:12.149Z,3.28
2022-12-04T20:01:41.550Z,3.28
2022-12-04T20:04:12.321Z,3.25
2022-12-04T20:06:46.154Z,3.29
2022-12-04T20:09:26.075Z,3.30
2022-12-04T20:12:22.831Z,3.26
2022-12-04T20:14:51.399Z,3.32
2022-12-04T20:17:20.827Z,3.31
2022-12-04T20:19:51.445Z,3.30
2022-12-04T20:22:21.361Z,3.29
2022-12-04T20:24:59.339Z,3.21
2022-12-04T20:27:28.764Z,3.24
2022-12-04T20:29:57.964Z,3.24
2022-12-04T20:32:29.924Z,3.22
2022-12-04T20:35:00.282Z,3.21
2022-12-04T20:37:31.043Z,3.21
2022-12-04T20:40:03.201Z,3.24
2022-12-04T20:42:33.733Z,3.26
2022-12-04T20:45:06.426Z,3.26
2022-12-04T20:47:37.478Z,3.31
2022-12-04T20:50:14.390Z,3.24
2022-12-04T20:52:44.366Z,3.30
2022-12-04T20:55:13.363Z,3.30
2022-12-04T20:57:52.271Z,3.36
2022-12-04T21:00:22.012Z,3.37
2022-12-04T21:02:51.686Z,3.31
2022-12-04T21:05:22.819Z,3.32
2022-12-04T21:07:54.420Z,3.29
2022-12-04T21:10:27.090Z,3.38
2022-12-04T21:13:12.748Z,3.28
2022-12-04T21:18:51.976Z,3.27
2022-12-04T21:21:23.816Z,3.29
2022-12-04T21:23:53.497Z,3.32
2022-12-04T21:26:23.297Z,3.29
2022-12-04T21:28:54.985Z,3.37
2022-12-04T21:31:24.969Z,3.30
2022-12-04T21:33:54.410Z,3.26
2022-12-04T21:36:31.787Z,3.28
2022-12-04T21:39:01.411Z,3.27
2022-12-04T21:41:48.166Z,3.24
2022-12-04T21:44:20.805Z,3.25
2022-12-04T21:46:50.161Z,3.28
2022-12-04T21:49:20.938Z,3.27
2022-12-04T21:51:57.783Z,3.27
2022-12-04T21:54:28.638Z,3.22
2022-12-04T21:56:59.177Z,3.27
2022-12-04T21:59:28.858Z,3.21
2022-12-04T22:01:58.027Z,3.22
2022-12-04T22:04:27.364Z,3.25
2022-12-04T22:06:58.205Z,3.24
2022-12-04T22:09:32.528Z,3.19
2022-12-04T22:12:04.227Z,3.23
2022-12-04T22:14:44.839Z,3.23
2022-12-04T22:17:14.814Z,3.23
2022-12-04T22:19:44.289Z,3.24
2022-12-04T22:22:18.263Z,3.23
2022-12-04T22:24:49.184Z,3.28
2022-12-04T22:27:29.242Z,3.27
2022-12-04T22:29:58.954Z,3.26
2022-12-04T22:32:31.410Z,3.24
2022-12-04T22:35:00.616Z,3.27
2022-12-04T22:37:31.614Z,3.27
2022-12-04T22:40:08.704Z,3.23
2022-12-04T22:42:37.759Z,3.26
2022-12-04T22:45:08.710Z,3.28
2022-12-04T22:47:38.696Z,3.26
2022-12-04T22:50:17.733Z,3.22
2022-12-04T22:52:48.450Z,3.21
2022-12-04T22:55:18.238Z,3.21
2022-12-04T22:57:51.382Z,3.24
2022-12-04T23:00:20.760Z,3.23
2022-12-04T23:02:49.747Z,3.22
2022-12-04T23:05:19.169Z,3.28
2022-12-04T23:08:05.521Z,3.23
2022-12-04T23:10:40.628Z,3.31
2022-12-04T23:13:13.470Z,3.31
2022-12-04T23:15:43.340Z,3.31
2022-12-04T23:18:18.702Z,3.36
2022-12-04T23:20:50.693Z,3.36
2022-12-04T23:23:22.752Z,3.34
2022-12-04T23:25:54.982Z,3.37
2022-12-04T23:28:24.466Z,3.35
2022-12-04T23:31:05.407Z,3.37
2022-12-04T23:33:35.111Z,3.36
2022-12-04T23:36:06.352Z,3.38
2022-12-04T23:38:39.049Z,3.41
2022-12-04T23:41:12.464Z,3.44
2022-12-04T23:43:42.823Z,3.38
2022-12-04T23:46:15.338Z,3.37
2022-12-04T23:48:57.290Z,3.44
2022-12-04T23:51:27.354Z,3.44
2022-12-04T23:54:05.150Z,3.40
2022-12-04T23:56:36.392Z,3.45
2022-12-04T23:59:05.707Z,3.43
